Florence, SC (29506)

2:39 AM EDT on September 22, 2014 (GMT -0400)
The Abbeys | Change Station
CLOSE
Current Station
Personal Weather Station
Location: Florence, SC
Elevation: 138 ft
Nearby Weather Stations

Elev 138 ft 34.15 °N, 79.78 °W | Updated 49 seconds ago

Mostly Cloudy
Mostly Cloudy
71.8 °F
Feels Like 71.8 °F
N
2.2
Wind Variable Wind from West

Today
High -- | Low -- °F
--% Chance of Precip.
Yesterday
High -- | Low -- °F
Precip. -- in
7:07 AM 7:15 PM
Waning Crescent, 4% visible
Pressure 29.90 in
Visibility 10.0 miles
Clouds Mostly Cloudy 9500 ft
Mostly Cloudy 12000 ft
Dew Point 69 °F
Humidity 92%
Rainfall 0.00 in
Snow Depth Not available.
UV 0 out of 12
Pollen 8.40 out of 12
PM2.5 Moderate
Flu Activity Not available.
METAR KFLO 220553Z AUTO 23007KT 10SM BKN095 BKN120 23/18 A2991 RMK AO2 SLP125 T02330178 10250 20228 58001

More Conditions Fewer Conditions

Pressure 29.90 in
Visibility 10.0 miles
Clouds Mostly Cloudy 9500 ft
Mostly Cloudy 12000 ft
Dew Point 69 °F
Humidity 92%
Rainfall 0.00 in
Snow Depth Not available.
UV 0 out of 12
Pollen 8.40 out of 12
PM2.5 Moderate
Flu Activity Not available.
METAR KFLO 220553Z AUTO 23007KT 10SM BKN095 BKN120 23/18 A2991 RMK AO2 SLP125 T02330178 10250 20228 58001

More Conditions Fewer Conditions

10-Day Weather Forecast

Almanac

Astronomy

Sep. 22, 2014 Rise Set
Actual Time 7:07 AM EDT 7:15 PM EDT
Civil Twilight 6:41 AM EDT 7:40 PM EDT
Nautical Twilight 6:12 AM EDT 8:09 PM EDT
Astronomical Twilight 5:43 AM EDT 8:39 PM EDT
Moon 5:37 AM EDT 6:20 PM EDT
Length of Visible Light 12h 58m
Length of Day
12h 08m
Tomorrow will be 2m 6s shorter.
Waning Crescent, 4% of the Moon is Illuminated
Today
Waning Crescent
Sep 24
New
Oct 1
First Quarter
Oct 8
Full
Oct 15
Last Quarter

Today's Extremes

State Highs State Lows

Community

WunderPhotos

Upload Photos

1,755,392 photos uploaded!

Nearby

Air Quality

  Air Quality AQ Index Pollutant
Yesterday Good
PM2.5
Yesterday Good
OZONE
Current Moderate
PM2.5
Monday Good
OZONE

Snow Depth

Station Depth Elevation
No new snow has been reported.

Earthquake Activity

City Distance Mag. Time & Date
New Ellenton, South Carolina 125 miles 2.6 4:38 PM EDT
2014-09-19
Minimum magnitude displayed is 2.5.

Coastal Water Temperatures

Place Temperature
No Stations Reporting

Nearby Weather Stations